Tiempo atmosférico en la estación meteorológica de Balsareny, Barcelona (352 m.)



Fecha
DESCASC
Temp. máxima en grados centígrados (hora)
DESCASC
Temp. mínima en grados centígrados (hora)
DESCASC
Temp. media en grados centígrados
DESCASC
Racha de viento máxima en m/sg (hora)
DESCASC
Velocidad máxima media en intervalos de 10 minutos(hora)
DESCASC
Precipitaciones diarias en mm
DESCASC
Precipitaciones de 00:00 a 06:00 en mm
DESCASC
Precipitaciones de 06:00 a 12:00 en mm
DESCASC
Precipitaciones de 12:00 a 18:00 en mm
DESCASC
Precipitaciones de 18:00 a 24:00 en mm
DESCASC
22-01-2020 11.9 (21:30) 5.5 (07:00) 8.7 12.22 (06:20) 8.61 (06:30) 38.6 28.2 7.6 2.6 0.2
21-01-2020 9.5 (21:00) 3.3 (05:50) 6.4 20.56 (00:20) 10.83 (00:10) 27.2 7.6 5.4 5 9.2
20-01-2020 8.5 (15:20) 5.6 (21:40) 7 18.06 (22:50) 9.72 (23:59) 0 0 0 0 0
19-01-2020 11.7 (15:00) 3.1 (00:00) 7.4 14.17 (17:10) 8.06 (23:00) 0.2 0 0.2 0 0
18-01-2020 12.6 (16:30) -2.2 (-00:0) 5.2 5.83 (13:50) 3.33 (14:30) 0 0 0 0 0
17-01-2020 14.1 (14:30) -0.8 (-00:0) 6.7 10.56 (16:40) 6.39 (15:00) 0 0 0 0 0
16-01-2020 13.9 (16:20) -3.4 (-00:0) 5.2 5.83 (15:10) 4.17 (15:10) 0 0 0 0 0
15-01-2020 11.7 (15:20) -4.6 (-00:0) 3.5 4.72 (16:00) 2.78 (16:00) 0 0 0 0 0
14-01-2020 12.7 (16:00) -4.7 (-00:0) 4 5.83 (14:20) 3.06 (14:10) 0 0 0 0 0
13-01-2020 9.4 (15:40) -5.5 (-00:0) 1.9 3.06 (15:10) 2.22 (21:10) 0 0 0 0 0
12-01-2020 11.7 (16:00) -5.3 (-00:0) 3.2 2.5 (14:50) 1.67 (21:30) 0 0 0 0 0
11-01-2020 9 (16:20) -2.5 (-00:0) 3.3 5.28 (03:30) 3.06 (03:40) 0 0 0 0 0
10-01-2020 10.2 (14:50) 2.4 (00:00) 6.3 5.28 (15:20) 2.5 (01:20) 3 0.2 2.8 0 0
09-01-2020 13 (15:30) -1.9 (-00:0) 5.6 5.83 (17:40) 3.89 (17:00) 0 0 0 0 0
08-01-2020 15 (15:20) -2.4 (-00:0) 6.3 3.61 (16:50) 2.78 (15:40) 0 0 0 0 0
07-01-2020 11.7 (15:50) -3.5 (-00:0) 4.1 3.89 (03:30) 2.22 (03:30) 0 0 0 0 0
06-01-2020 12.8 (15:20) -3.8 (-00:0) 4.5 2.78 (15:10) 2.22 (15:40) 0 0 0 0 0
05-01-2020 11.6 (15:50) -4.6 (-00:0) 3.5 3.61 (16:30) 2.78 (16:30) 0 0 0 0 0
04-01-2020 10.9 (15:00) -3.2 (-00:0) 3.8 5.28 (15:10) 3.61 (15:10) 0 0 0 0 0
03-01-2020 6 (15:50) -2 (-00:0) 2 3.33 (13:20) 2.22 (16:50) 0 0 0 0 0
02-01-2020 4.6 (16:30) -1.3 (-00:0) 1.6 1.94 (12:50) 1.39 (17:20) 0 0 0 0 0
01-01-2020 10.3 (15:40) 0.8 (00:00) 5.6 4.17 (04:20) 2.78 (04:10) 0 0 0 0 0
31-12-2019 6.9 (16:30) 1.7 (00:00) 4.3 5 (21:00) 3.06 (20:40) 0 0 0 0 0
30-12-2019 12.1 (15:00) 1.2 (00:00) 6.7 4.44 (15:00) 2.5 (10:10) 0 0 0 0 0
29-12-2019 10.8 (15:00) 3.8 (00:00) 7.3 4.44 (11:20) 3.33 (11:10) 0 0 0 0 0
28-12-2019 13.1 (15:30) -2 (-00:0) 5.6 3.89 (14:30) 2.78 (14:30) 0 0 0 0 0
27-12-2019 9.3 (16:20) 0.9 (00:00) 5.1 3.89 (17:10) 2.78 (17:10) 0 0 0 0 0
26-12-2019 13.3 (15:50) 1.1 (00:00) 7.2 4.44 (18:40) 2.5 (04:10) 0 0 0 0 0

Gráficas

Temp. máximas Temp. mínimas Temp. medias Precipitaciones Rachas de viento máximas Velocidades máximas media en intervalos de 10 minutos

Datos horarios

Fecha y hora oficial Temperatura (ºC) Velocidad del viento (km/h) Dirección del viento Racha (km/h) Dirección de racha Precipitación (mm) Presión (hPa) Tendencia (hPa) Humedad (%)
2020-01-24 23:00:00 2.1 6 Noroeste 11 Norte 0 -- -- 94
2020-01-24 22:00:00 4.5 4 Noroeste 9 Norte 0 -- -- 94
2020-01-24 21:00:00 5 4 Noroeste 10 Norte 0 -- -- 92
2020-01-24 20:00:00 6.4 0 Calma 8 Noroeste 0 -- -- 87
2020-01-24 19:00:00 8.8 0 Calma 6 Nordeste 0 -- -- 80
2020-01-24 18:00:00 10.6 4 Sudoeste 13 Sudoeste 0 -- -- 71
2020-01-24 17:00:00 12.7 8 Sur 15 Sur 0 -- -- 69
2020-01-24 16:00:00 13.6 9 Sur 13 Sur 0 -- -- 66
2020-01-24 15:00:00 12.2 10 Sur 15 Sur 0 -- -- 67
2020-01-24 14:00:00 11 8 Sur 12 Sur 0 -- -- 73
2020-01-24 13:00:00 9.1 6 Sur 9 Sur 0 -- -- 79
2020-01-24 12:00:00 6.3 4 Sur 7 Sudeste 0 -- -- 98
2020-01-24 11:00:00 2.9 3 Sudeste 5 Sudeste 0 -- -- 100
2020-01-24 10:00:00 0.8 0 Calma 6 Noroeste 0 -- -- 100
2020-01-24 09:00:00 -0.5 4 Noroeste 5 Noroeste 0 -- -- 100
2020-01-24 08:00:00 -0.6 4 Noroeste 5 Noroeste 0 -- -- 100
2020-01-24 07:00:00 -0.6 0 Calma 5 Norte 0 -- -- 100
2020-01-24 06:00:00 -0.4 3 Norte 4 Norte 0 -- -- 100
2020-01-24 05:00:00 0.2 4 Noroeste 6 Norte 0 -- -- 99
2020-01-24 04:00:00 0.1 0 Calma 4 Norte 0 -- -- 99
2020-01-24 03:00:00 0.3 0 Calma 4 Norte 0 -- -- 99
2020-01-24 02:00:00 1.1 3 Norte 7 Norte 0 -- -- 99
2020-01-24 01:00:00 1.2 5 Noroeste 8 Noroeste 0 -- -- 98
2020-01-24 00:00:00 1.5 4 Norte 6 Noroeste 0 -- -- 98
2020-01-23 23:00:00 2.9 5 Noroeste 8 Norte 0 -- -- 99
2020-01-23 22:00:00 3.5 2 Norte 8 Noroeste 0 -- -- 96
2020-01-23 21:00:00 4.8 4 Norte 9 Noroeste 0 -- -- 96
2020-01-23 20:00:00 6.5 6 Norte 9 Norte 0 -- -- 96
2020-01-23 19:00:00 8 5 Norte 9 Oeste 0 -- -- 92
2020-01-23 18:00:00 10 8 Oeste 10 Oeste 0 -- -- 82
2020-01-23 17:00:00 11.8 6 Sur 9 Sur 0 -- -- 76
2020-01-23 16:00:00 11.8 5 Sur 16 Sudoeste 0 -- -- 76
2020-01-23 15:00:00 12.6 9 Sur 20 Sudoeste 0 -- -- 74
2020-01-23 14:00:00 12 11 Sur 18 Sudoeste 0 -- -- 80
2020-01-23 13:00:00 10.1 4 Sur 15 Sudoeste 0.6 -- -- 96
2020-01-23 12:00:00 10.1 6 Este 10 Este 0 -- -- 94
2020-01-23 11:00:00 9.3 7 Nordeste 10 Nordeste 0 -- -- 97
2020-01-23 10:00:00 8.8 7 Noroeste 12 Noroeste 0 -- -- 98
2020-01-23 09:00:00 7.8 8 Norte 15 Norte 0.4 -- -- 99
2020-01-23 08:00:00 7.7 12 Norte 19 Sudoeste 2 -- -- 97
2020-01-23 07:00:00 8.4 16 Sur 36 Sudoeste 4 -- -- 95
2020-01-23 06:00:00 10.9 10 Nordeste 31 Nordeste 0 -- -- 92
2020-01-23 05:00:00 11.1 15 Nordeste 28 Nordeste 0.2 -- -- 93
2020-01-23 04:00:00 10.6 12 Norte 20 Nordeste 0.2 -- -- 96
2020-01-23 03:00:00 10.3 8 Nordeste 16 Nordeste 0.4 -- -- 96
2020-01-23 02:00:00 10.4 10 Norte 15 Este 0 -- -- 93
2020-01-23 01:00:00 11.1 10 Nordeste 24 Este 0 -- -- 90
2020-01-23 00:00:00 11.5 13 Este 30 Este 0 -- -- 87
2020-01-22 23:00:00 11.5 16 Este 35 Este 0.2 -- -- 87
2020-01-22 22:00:00 11.8 10 Este 21 Sudeste 0 -- -- 86
2020-01-22 21:00:00 11.7 8 Este 22 Nordeste 0 -- -- 84
2020-01-22 20:00:00 11 6 Norte 12 Este 0 -- -- 89
2020-01-22 19:00:00 11.2 5 Este 15 Este 0 -- -- 89
2020-01-22 18:00:00 11.4 10 Este 21 Nordeste 0.2 -- -- 91
2020-01-22 17:00:00 11.6 6 Nordeste 15 Este 0 -- -- 95
2020-01-22 16:00:00 10.6 4 Nordeste 12 Norte 0.8 -- -- 98
2020-01-22 15:00:00 9.5 9 Norte 17 Norte 0.4 -- -- 97
2020-01-22 14:00:00 9.4 9 Norte 17 Noroeste 0.2 -- -- 97
2020-01-22 13:00:00 8.2 12 Norte 17 Norte 1 -- -- 98
2020-01-22 12:00:00 7.2 7 Norte 21 Norte 4 -- -- 97
2020-01-22 11:00:00 7 5 Noroeste 14 Norte 1.6 -- -- 97
2020-01-22 10:00:00 6.3 6 Noroeste 12 Nordeste 0.6 -- -- 97
2020-01-22 09:00:00 6 10 Noroeste 14 Norte 0.2 -- -- 94
2020-01-22 08:00:00 5.9 14 Norte 36 Norte 0 -- -- 93
2020-01-22 07:00:00 5.5 19 Norte 44 Norte 1.2 -- -- 98
2020-01-22 06:00:00 5.8 21 Norte 33 Nordeste 3.8 -- -- 97
2020-01-22 05:00:00 5.9 23 Norte 35 Norte 2.8 -- -- 97
2020-01-22 04:00:00 7.6 19 Nordeste 31 Nordeste 3.2 -- -- 97
2020-01-22 03:00:00 7.8 9 Norte 23 Noroeste 3.6 -- -- 97
2020-01-22 02:00:00 8.3 14 Oeste 21 Oeste 8.8 -- -- 97
2020-01-22 01:00:00 8.6 8 Noroeste 27 Este 6 -- -- 96
2020-01-22 00:00:00 8.4 12 Nordeste 24 Este 5.8 -- -- 95
2020-01-21 23:00:00 8.5 16 Nordeste 31 Nordeste 2.2 -- -- 94
2020-01-21 22:00:00 8.6 22 Nordeste 52 Este 1 -- -- 93
2020-01-21 21:00:00 9.5 27 Este 57 Este 0 -- -- 86
2020-01-21 20:00:00 8.9 30 Nordeste 57 Nordeste 0.2 -- -- 88
2020-01-21 19:00:00 8.8 30 Nordeste 60 Nordeste 0 -- -- 89
2020-01-21 18:00:00 8.8 28 Nordeste 54 Nordeste 0 -- -- 86
2020-01-21 17:00:00 8.7 31 Nordeste 57 Nordeste 0.2 -- -- 85
2020-01-21 16:00:00 8.1 23 Nordeste 40 Nordeste 0.6 -- -- 92
2020-01-21 15:00:00 7.6 17 Nordeste 41 Nordeste 1.4 -- -- 94
2020-01-21 14:00:00 7.4 16 Nordeste 37 Nordeste 1.4 -- -- 94
2020-01-21 13:00:00 7.4 21 Nordeste 37 Norte 1.4 -- -- 93
2020-01-21 12:00:00 7.1 18 Nordeste 41 Este 1.6 -- -- 94
2020-01-21 11:00:00 6.6 26 Nordeste 48 Norte 0.2 -- -- 91
2020-01-21 10:00:00 6.1 25 Nordeste 53 Nordeste 0.6 -- -- 92
2020-01-21 09:00:00 5.3 22 Nordeste 56 Nordeste 1.2 -- -- 92
2020-01-21 08:00:00 5.1 25 Nordeste 51 Nordeste 1.4 -- -- 92
2020-01-21 07:00:00 4.6 22 Norte 41 Norte 0.4 -- -- 93
2020-01-21 06:00:00 3.4 21 Norte 37 Nordeste 1.2 -- -- 95
2020-01-21 05:00:00 3.6 17 Nordeste 35 Norte 2.2 -- -- 94
2020-01-21 04:00:00 3.7 16 Nordeste 39 Nordeste 2 -- -- 93
2020-01-21 03:00:00 4.4 15 Nordeste 46 Nordeste 2 -- -- 91
2020-01-21 02:00:00 5.5 25 Nordeste 60 Este 0.2 -- -- 82
2020-01-21 01:00:00 6.8 28 Nordeste 74 Este 0 -- -- 69
2020-01-21 00:00:00 6.5 35 Este 63 Nordeste 0 -- -- 69
2020-01-20 23:00:00 5.9 24 Este 65 Este 0 -- -- 71
2020-01-20 22:00:00 5.7 23 Nordeste 48 Nordeste 0 -- -- 72
2020-01-20 21:00:00 5.9 22 Nordeste 47 Nordeste 0 -- -- 72
2020-01-20 20:00:00 6.2 21 Nordeste 53 Nordeste 0 -- -- 67
2020-01-20 19:00:00 6.9 33 Nordeste 58 Nordeste 0 -- -- 63
2020-01-20 18:00:00 7 18 Nordeste 44 Nordeste 0 -- -- 60
2020-01-20 17:00:00 7.5 25 Nordeste 49 Nordeste 0 -- -- 58
2020-01-20 16:00:00 8.3 21 Nordeste 57 Nordeste 0 -- -- 55
2020-01-20 15:00:00 8.3 26 Nordeste 62 Nordeste 0 -- -- 55
2020-01-20 14:00:00 8.3 29 Nordeste 51 Este 0 -- -- 55
2020-01-20 13:00:00 8.3 26 Nordeste 57 Nordeste 0 -- -- 57
2020-01-20 12:00:00 8.1 18 Nordeste 46 Nordeste 0 -- -- 56
2020-01-20 11:00:00 7 11 Nordeste 34 Norte 0 -- -- 61
2020-01-20 10:00:00 6.7 14 Nordeste 34 Nordeste 0 -- -- 60
2020-01-20 09:00:00 6.4 17 Norte 39 Norte 0 -- -- 58
2020-01-20 08:00:00 6.6 28 Nordeste 55 Nordeste 0 -- -- 56
2020-01-20 07:00:00 7.2 26 Nordeste 54 Nordeste 0 -- -- 51
2020-01-20 06:00:00 7.8 20 Nordeste 37 Nordeste 0 -- -- 43
2020-01-20 05:00:00 7.7 19 Norte 38 Norte 0 -- -- 36
2020-01-20 04:00:00 7.4 20 Norte 35 Norte 0 -- -- 34
2020-01-20 03:00:00 6.9 15 Norte 28 Norte 0 -- -- 30
2020-01-20 02:00:00 6.7 20 Norte 34 Norte 0 -- -- 29
2020-01-20 01:00:00 7.1 19 Norte 36 Norte 0 -- -- 28
2020-01-20 00:00:00 7.6 24 Norte 42 Norte 0 -- -- 28
2020-01-19 23:00:00 7.4 29 Norte 45 Norte 0 -- -- 29
2020-01-19 22:00:00 6.8 19 Norte 32 Norte 0 -- -- 30
2020-01-19 21:00:00 6.7 20 Norte 31 Norte 0 -- -- 29
2020-01-19 20:00:00 7.1 17 Norte 38 Nordeste 0 -- -- 27
2020-01-19 19:00:00 7.4 17 Nordeste 34 Nordeste 0 -- -- 27
2020-01-19 18:00:00 8.6 20 Nordeste 51 Este 0 -- -- 24
2020-01-19 17:00:00 9.7 20 Este 38 Este 0 -- -- 25
2020-01-19 16:00:00 11.2 20 Este 39 Este 0 -- -- 27
2020-01-19 15:00:00 11.7 19 Este 37 Este 0 -- -- 36
2020-01-19 14:00:00 11.6 15 Este 43 Este 0 -- -- 37
2020-01-19 13:00:00 10.9 17 Este 30 Este 0 -- -- 40
2020-01-19 12:00:00 9.6 10 Nordeste 33 Este 0 -- -- 45
2020-01-19 11:00:00 7.8 13 Norte 27 Nordeste 0 -- -- 59
2020-01-19 10:00:00 6.4 11 Nordeste 24 Este 0 -- -- 69
2020-01-19 09:00:00 5.9 10 Norte 17 Nordeste 0 -- -- 80
2020-01-19 08:00:00 6.1 10 Norte 27 Norte 0.2 -- -- 86
2020-01-19 07:00:00 6.7 14 Norte 22 Norte 0 -- -- 86
2020-01-19 06:00:00 6.9 13 Norte 20 Norte 0 -- -- 82
2020-01-19 05:00:00 5.7 6 Norte 9 Norte 0 -- -- 80
2020-01-19 04:00:00 5 4 Norte 13 Noroeste 0 -- -- 81
2020-01-19 03:00:00 4.7 9 Norte 13 Noroeste 0 -- -- 76
2020-01-19 02:00:00 3.9 2 Norte 5 Norte 0 -- -- 77
2020-01-19 01:00:00 3.9 3 Norte 14 Norte 0 -- -- 76
2020-01-19 00:00:00 3.1 5 Norte 10 Norte 0 -- -- 82
2020-01-18 23:00:00 3.5 3 Norte 7 Noroeste 0 -- -- 80
2020-01-18 22:00:00 4.4 6 Norte 10 Norte 0 -- -- 72
2020-01-18 21:00:00 4.2 4 Norte 9 Norte 0 -- -- 78
2020-01-18 20:00:00 5.1 5 Norte 9 Norte 0 -- -- 74
2020-01-18 19:00:00 6 5 Norte 11 Noroeste 0 -- -- 71
2020-01-18 18:00:00 9.9 0 Calma 7 Sudoeste 0 -- -- 57
2020-01-18 17:00:00 12.1 5 Sudoeste 13 Sur 0 -- -- 52
2020-01-18 16:00:00 12.4 9 Sur 15 Sur 0 -- -- 50
2020-01-18 15:00:00 12.1 9 Sur 19 Sur 0 -- -- 52
2020-01-18 14:00:00 11.4 10 Sur 21 Sur 0 -- -- 57
2020-01-18 13:00:00 9.9 6 Sur 12 Sur 0 -- -- 62
2020-01-18 12:00:00 7.8 4 Este 15 Norte 0 -- -- 68
2020-01-18 11:00:00 4 10 Norte 13 Nordeste 0 -- -- 82
2020-01-18 10:00:00 1.3 5 Sur 9 Sudoeste 0 -- -- 90
2020-01-18 09:00:00 0.4 5 Noroeste 8 Noroeste 0 -- -- 91
2020-01-18 08:00:00 0.2 4 Norte 9 Noroeste 0 -- -- 93
2020-01-18 07:00:00 -1 4 Norte 7 Norte 0 -- -- 94
2020-01-18 06:00:00 -1.7 5 Norte 8 Norte 0 -- -- 94
2020-01-18 05:00:00 -1.7 4 Norte 11 Norte 0 -- -- 93
2020-01-18 04:00:00 -2 8 Norte 9 Norte 0 -- -- 95
2020-01-18 03:00:00 -0.7 0 Calma 8 Norte 0 -- -- 92
2020-01-18 02:00:00 -0.8 8 Norte 13 Norte 0 -- -- 93
2020-01-18 01:00:00 -0.1 7 Norte 11 Norte 0 -- -- 90
2020-01-18 00:00:00 2.3 5 Norte 8 Norte 0 -- -- 84
2020-01-17 23:00:00 4.5 6 Sur 11 Sur 0 -- -- 79
2020-01-17 22:00:00 6.1 4 Oeste 9 Norte 0 -- -- 70
2020-01-17 21:00:00 8.7 9 Norte 26 Oeste 0 -- -- 63
2020-01-17 20:00:00 9.6 11 Noroeste 20 Noroeste 0 -- -- 62
2020-01-17 19:00:00 11 8 Oeste 32 Oeste 0 -- -- 51
2020-01-17 18:00:00 12 14 Oeste 32 Noroeste 0 -- -- 54
2020-01-17 17:00:00 12.5 14 Oeste 38 Oeste 0 -- -- 64
2020-01-17 16:00:00 13.5 10 Sudoeste 34 Sudoeste 0 -- -- 60
2020-01-17 15:00:00 13.5 23 Sudoeste 38 Sudoeste 0 -- -- 61
2020-01-17 14:00:00 13.7 13 Sudoeste 31 Sudoeste 0 -- -- 60
2020-01-17 13:00:00 12.9 13 Oeste 37 Oeste 0 -- -- 64
2020-01-17 12:00:00 10.5 8 Oeste 28 Oeste 0 -- -- 75
2020-01-17 11:00:00 3 2 Sur 7 Norte 0 -- -- 100
2020-01-17 10:00:00 1.1 2 Norte 9 Norte 0 -- -- 100
2020-01-17 09:00:00 0.5 9 Norte 13 Norte 0 -- -- 99
2020-01-17 08:00:00 0.4 4 Norte 6 Norte 0 -- -- 99
2020-01-17 07:00:00 0.3 4 Sudoeste 8 Noroeste 0 -- -- 100
2020-01-17 06:00:00 0.2 2 Sudeste 6 Norte 0 -- -- 99
2020-01-17 05:00:00 -0.3 2 Norte 7 Norte 0 -- -- 99
2020-01-17 04:00:00 -0.3 3 Norte 6 Norte 0 -- -- 97
2020-01-17 03:00:00 0.4 2 Sur 5 Norte 0 -- -- 98
2020-01-17 02:00:00 0.9 0 Calma 6 Norte 0 -- -- 97
2020-01-17 01:00:00 0.4 2 Norte 6 Norte 0 -- -- 96
2020-01-17 00:00:00 0.8 3 Norte 7 Norte 0 -- -- 95
2020-01-16 23:00:00 1.6 3 Norte 8 Norte 0 -- -- 94
2020-01-16 22:00:00 3.7 5 Norte 9 Noroeste 0 -- -- 95
2020-01-16 21:00:00 4.5 5 Noroeste 10 Noroeste 0 -- -- 93
2020-01-16 20:00:00 6.3 6 Norte 8 Norte 0 -- -- 90
2020-01-16 19:00:00 8.9 6 Norte 14 Sudoeste 0 -- -- 83
2020-01-16 18:00:00 11.7 10 Sudoeste 17 Sur 0 -- -- 74
2020-01-16 17:00:00 13.6 9 Sur 16 Sudoeste 0 -- -- 64
2020-01-16 16:00:00 13.7 13 Sur 21 Sur 0 -- -- 59
2020-01-16 15:00:00 13.1 14 Sur 20 Sur 0 -- -- 60
2020-01-16 14:00:00 12 9 Sur 14 Sur 0 -- -- 61
2020-01-16 13:00:00 9.5 5 Sur 8 Sur 0 -- -- 63
2020-01-16 12:00:00 6.6 0 Calma 5 Este 0 -- -- 72
2020-01-16 11:00:00 3.2 3 Este 6 Nordeste 0 -- -- 83
2020-01-16 10:00:00 -1.1 3 Norte 6 Norte 0 -- -- 97
2020-01-16 09:00:00 -3 2 Norte 9 Norte 0 -- -- 97
2020-01-16 08:00:00 -3.4 4 Norte 6 Norte 0 -- -- 97
2020-01-16 07:00:00 -3.1 4 Norte 5 Norte 0 -- -- 97
2020-01-16 06:00:00 -2.5 0 Calma 6 Norte 0 -- -- 98
2020-01-16 05:00:00 -2 0 Calma 6 Noroeste 0 -- -- 98
2020-01-16 04:00:00 -2.4 3 Norte 8 Noroeste 0 -- -- 97
2020-01-16 03:00:00 -1.8 5 Norte 7 Norte 0 -- -- 97
2020-01-16 02:00:00 -1.1 2 Noroeste 7 Norte 0 -- -- 96
2020-01-16 01:00:00 -0.7 5 Noroeste 8 Noroeste 0 -- -- 96
2020-01-16 00:00:00 -0.1 3 Sudoeste 9 Nordeste 0 -- -- 93
2020-01-15 23:00:00 0.2 5 Norte 9 Norte 0 -- -- 94
2020-01-15 22:00:00 1.2 6 Noroeste 12 Norte 0 -- -- 87
2020-01-15 21:00:00 2.5 4 Norte 14 Norte 0 -- -- 85
2020-01-15 20:00:00 4.4 6 Norte 12 Norte 0 -- -- 81
2020-01-15 19:00:00 7 5 Noroeste 14 Oeste 0 -- -- 70
2020-01-15 18:00:00 8.2 6 Noroeste 10 Oeste 0 -- -- 67
2020-01-15 17:00:00 10.5 5 Sur 12 Sudoeste 0 -- -- 58
2020-01-15 16:00:00 10.9 10 Sudoeste 17 Sudoeste 0 -- -- 56
2020-01-15 15:00:00 11.1 7 Sur 13 Sur 0 -- -- 59
2020-01-15 14:00:00 9.2 6 Sudeste 12 Sudeste 0 -- -- 62
2020-01-15 13:00:00 6.2 5 Sudeste 7 Sur 0 -- -- 74
2020-01-15 12:00:00 3.7 3 Nordeste 8 Noroeste 0 -- -- 83
2020-01-15 11:00:00 0.4 2 Nordeste 6 Noroeste 0 -- -- 95
2020-01-15 10:00:00 -2.6 2 Norte 5 Norte 0 -- -- 97
2020-01-15 09:00:00 -3.8 0 Calma 6 Norte 0 -- -- 97
2020-01-15 08:00:00 -3.8 6 Noroeste 8 Norte 0 -- -- 97
2020-01-15 07:00:00 -3.7 4 Norte 6 Norte 0 -- -- 97
2020-01-15 06:00:00 -3.8 3 Norte 5 Norte 0 -- -- 95
2020-01-15 05:00:00 -3.2 4 Norte 6 Norte 0 -- -- 95
2020-01-15 04:00:00 -2.2 3 Norte 10 Noroeste 0 -- -- 93
2020-01-15 03:00:00 -3 4 Norte 7 Noroeste 0 -- -- 96
2020-01-15 02:00:00 -2.6 0 Calma 5 Noroeste 0 -- -- 94
2020-01-15 01:00:00 -1.9 5 Noroeste 8 Noroeste 0 -- -- 95
2020-01-15 00:00:00 -1.9 4 Noroeste 8 Norte 0 -- -- 93
2020-01-14 23:00:00 -1.5 5 Noroeste 6 Norte 0 -- -- 90
2020-01-14 22:00:00 0.4 6 Norte 8 Norte 0 -- -- 87
2020-01-14 21:00:00 0.7 3 Noroeste 6 Norte 0 -- -- 81
2020-01-14 20:00:00 3.8 2 Noroeste 6 Sudoeste 0 -- -- 74
2020-01-14 19:00:00 6.9 2 Noroeste 6 Noroeste 0 -- -- 62
2020-01-14 18:00:00 8.7 2 Noroeste 9 Sudoeste 0 -- -- 57
2020-01-14 17:00:00 10.9 8 Sudoeste 14 Sudoeste 0 -- -- 53
2020-01-14 16:00:00 12.7 6 Sudoeste 14 Sudoeste 0 -- -- 47
2020-01-14 15:00:00 12 7 Oeste 21 Sudoeste 0 -- -- 45
2020-01-14 14:00:00 10.2 9 Sur 13 Sudeste 0 -- -- 57
2020-01-14 13:00:00 8.3 3 Nordeste 7 Norte 0 -- -- 62
2020-01-14 12:00:00 5.1 2 Nordeste 8 Este 0 -- -- 74
2020-01-14 11:00:00 1 4 Norte 6 Noroeste 0 -- -- 89
2020-01-14 10:00:00 -1.8 4 Norte 6 Norte 0 -- -- 97
2020-01-14 09:00:00 -4.1 3 Noroeste 6 Norte 0 -- -- 97
2020-01-14 08:00:00 -4.5 3 Norte 5 Norte 0 -- -- 96
2020-01-14 07:00:00 -4.6 2 Norte 10 Norte 0 -- -- 95
2020-01-14 06:00:00 -3.9 0 Calma 9 Noroeste 0 -- -- 96
2020-01-14 05:00:00 -2.9 6 Norte 10 Noroeste 0 -- -- 97
2020-01-14 04:00:00 -2.7 5 Norte 8 Norte 0 -- -- 98
2020-01-14 03:00:00 -3.6 5 Noroeste 7 Noroeste 0 -- -- 96
2020-01-14 02:00:00 -3 2 Noroeste 6 Noroeste 0 -- -- 95
2020-01-14 01:00:00 -1.6 5 Noroeste 9 Norte 0 -- -- 96
2020-01-14 00:00:00 -2 2 Nordeste 8 Noroeste 0 -- -- 94
2020-01-13 23:00:00 -1.5 4 Norte 10 Noroeste 0 -- -- 93
2020-01-13 22:00:00 0.2 5 Noroeste 10 Norte 0 -- -- 92
2020-01-13 21:00:00 0.8 7 Norte 10 Noroeste 0 -- -- 88
2020-01-13 20:00:00 3.4 3 Sudoeste 10 Noroeste 0 -- -- 83
2020-01-13 19:00:00 5.6 6 Sudoeste 7 Sudoeste 0 -- -- 75
2020-01-13 18:00:00 7.1 0 Calma 9 Sur 0 -- -- 67
2020-01-13 17:00:00 8.3 4 Sur 10 Sur 0 -- -- 60
2020-01-13 16:00:00 9.3 6 Sur 11 Sur 0 -- -- 55
2020-01-13 15:00:00 9 7 Sur 10 Sur 0 -- -- 56
2020-01-13 14:00:00 8.2 6 Sur 10 Sur 0 -- -- 58
2020-01-13 13:00:00 6.3 4 Sudeste 7 Sudeste 0 -- -- 61
2020-01-13 12:00:00 4.3 3 Este 6 Nordeste 0 -- -- 76
2020-01-13 11:00:00 0.8 2 Nordeste 5 Sudeste 0 -- -- 85
2020-01-13 10:00:00 -2.6 0 Calma 6 Norte 0 -- -- 97
2020-01-13 09:00:00 -5.2 5 Norte 6 Norte 0 -- -- 96
2020-01-13 08:00:00 -5.3 0 Calma 7 Norte 0 -- -- 96
2020-01-13 07:00:00 -4.6 4 Norte 8 Norte 0 -- -- 96
2020-01-13 06:00:00 -4.7 3 Norte 7 Norte 0 -- -- 97
2020-01-13 05:00:00 -4.4 3 Norte 7 Noroeste 0 -- -- 97
2020-01-13 04:00:00 -3.8 3 Noroeste 8 Norte 0 -- -- 97
2020-01-13 03:00:00 -3.7 3 Noroeste 6 Noroeste 0 -- -- 96
2020-01-13 02:00:00 -3.3 0 Calma 7 Noroeste 0 -- -- 96
2020-01-13 01:00:00 -2.2 5 Noroeste 8 Noroeste 0 -- -- 97
2020-01-13 00:00:00 -2.1 3 Norte 7 Noroeste 0 -- -- 96
2020-01-12 23:00:00 -1.1 3 Noroeste 7 Noroeste 0 -- -- 95
2020-01-12 22:00:00 -0.6 4 Noroeste 8 Norte 0 -- -- 94
2020-01-12 21:00:00 0.4 5 Norte 8 Norte 0 -- -- 93
2020-01-12 20:00:00 3.3 0 Calma 5 Norte 0 -- -- 84
2020-01-12 19:00:00 5.9 2 Sudeste 9 Sudoeste 0 -- -- 76
2020-01-12 18:00:00 8.2 3 Sudoeste 7 Sudoeste 0 -- -- 69
2020-01-12 17:00:00 10.7 3 Sudoeste 8 Sur 0 -- -- 58
2020-01-12 16:00:00 11.7 4 Sur 8 Sur 0 -- -- 55
2020-01-12 15:00:00 10.5 4 Sur 9 Sudeste 0 -- -- 54
2020-01-12 14:00:00 9.1 4 Sur 8 Sudeste 0 -- -- 55
2020-01-12 13:00:00 6.8 3 Nordeste 6 Nordeste 0 -- -- 66
2020-01-12 12:00:00 3.5 3 Norte 6 Este 0 -- -- 80
2020-01-12 11:00:00 0.4 3 Norte 5 Noroeste 0 -- -- 88
2020-01-12 10:00:00 -2.9 4 Norte 5 Norte 0 -- -- 97
2020-01-12 09:00:00 -4.7 4 Norte 5 Norte 0 -- -- 98
2020-01-12 08:00:00 -4.9 3 Noroeste 6 Norte 0 -- -- 97
2020-01-12 07:00:00 -5.2 5 Norte 8 Norte 0 -- -- 97
2020-01-12 06:00:00 -4.9 3 Norte 6 Norte 0 -- -- 97
2020-01-12 05:00:00 -4 4 Noroeste 5 Norte 0 -- -- 98
2020-01-12 04:00:00 -4 0 Calma 5 Norte 0 -- -- 97
2020-01-12 03:00:00 -3.4 5 Noroeste 7 Noroeste 0 -- -- 98
2020-01-12 02:00:00 -3 3 Noroeste 6 Norte 0 -- -- 98
2020-01-12 01:00:00 -2.4 4 Norte 9 Noroeste 0 -- -- 96
2020-01-12 00:00:00 -2.5 4 Norte 8 Norte 0 -- -- 97
2020-01-11 23:00:00 -1.3 3 Noroeste 6 Norte 0 -- -- 97
2020-01-11 22:00:00 -1.1 5 Norte 9 Noroeste 0 -- -- 95
2020-01-11 21:00:00 0.1 4 Noroeste 7 Noroeste 0 -- -- 94
2020-01-11 20:00:00 1.5 6 Norte 8 Noroeste 0 -- -- 92
2020-01-11 19:00:00 3.4 2 Norte 5 Norte 0 -- -- 86
2020-01-11 18:00:00 5.1 0 Calma 10 Oeste 0 -- -- 80
2020-01-11 17:00:00 8.4 3 Noroeste 7 Sudoeste 0 -- -- 69
2020-01-11 16:00:00 8.9 3 Norte 8 Sudeste 0 -- -- 68
2020-01-11 15:00:00 8.4 3 Este 10 Sur 0 -- -- 71
2020-01-11 14:00:00 7.6 4 Este 11 Este 0 -- -- 72
2020-01-11 13:00:00 6 5 Sudeste 10 Sudeste 0 -- -- 76
2020-01-11 12:00:00 5 6 Nordeste 17 Norte 0 -- -- 81
2020-01-11 11:00:00 3.6 10 Norte 14 Norte 0 -- -- 86
2020-01-11 10:00:00 2.4 2 Noroeste 8 Norte 0 -- -- 91
2020-01-11 09:00:00 2.1 7 Norte 11 Norte 0 -- -- 92
2020-01-11 08:00:00 2.2 5 Norte 12 Norte 0 -- -- 94
2020-01-11 07:00:00 2.6 7 Norte 13 Norte 0 -- -- 94
2020-01-11 06:00:00 3.1 5 Norte 9 Norte 0 -- -- 94
2020-01-11 05:00:00 3.2 3 Noroeste 12 Norte 0 -- -- 95
2020-01-11 04:00:00 3.3 6 Norte 19 Noroeste 0 -- -- 94
2020-01-11 03:00:00 4.3 5 Noroeste 11 Oeste 0 -- -- 97
2020-01-11 02:00:00 3.9 3 Norte 5 Norte 0 -- -- 98
2020-01-11 01:00:00 3.4 3 Norte 5 Norte 0 -- -- 98
2020-01-11 00:00:00 3.3 2 Noroeste 5 Noroeste 0 -- -- 98
2020-01-10 23:00:00 2.8 0 Calma 6 Norte 0 -- -- 98
2020-01-10 22:00:00 2.5 3 Norte 9 Noroeste 0 -- -- 97
2020-01-10 21:00:00 3.5 6 Noroeste 9 Noroeste 0 -- -- 95
2020-01-10 20:00:00 5 3 Norte 6 Norte 0 -- -- 91
2020-01-10 19:00:00 5.8 3 Oeste 10 Oeste 0 -- -- 90
2020-01-10 18:00:00 6.1 3 Sudoeste 13 Sudoeste 0 -- -- 88
2020-01-10 17:00:00 7.7 7 Sur 14 Sudeste 0 -- -- 82
2020-01-10 16:00:00 8.8 6 Sudoeste 19 Oeste 0 -- -- 81
2020-01-10 15:00:00 10.1 8 Sudoeste 14 Sudoeste 0 -- -- 80
2020-01-10 14:00:00 9.4 4 Norte 16 Noroeste 0 -- -- 82
2020-01-10 13:00:00 8.4 5 Noroeste 14 Oeste 0 -- -- 86
2020-01-10 12:00:00 7.3 5 Noroeste 12 Sudoeste 0 -- -- 92
2020-01-10 11:00:00 6.4 4 Sudoeste 9 Sudoeste 0.2 -- -- 99
2020-01-10 10:00:00 5.3 4 Sur 8 Oeste 0.2 -- -- 99
2020-01-10 09:00:00 5.3 8 Noroeste 10 Noroeste 0.4 -- -- 99
2020-01-10 08:00:00 4.7 2 Sur 5 Noroeste 0.6 -- -- 99
2020-01-10 07:00:00 4.7 4 Noroeste 6 Norte 1.4 -- -- 98
2020-01-10 06:00:00 4.4 4 Noroeste 8 Noroeste 0.2 -- -- 97
2020-01-10 05:00:00 4.8 4 Noroeste 9 Noroeste 0 -- -- 98
2020-01-10 04:00:00 3.8 3 Sudoeste 8 Norte 0 -- -- 98
2020-01-10 03:00:00 3.5 3 Norte 12 Noroeste 0 -- -- 98
2020-01-10 02:00:00 2.9 3 Norte 12 Noroeste 0 -- -- 98
2020-01-10 01:00:00 3.3 6 Norte 8 Noroeste 0 -- -- 99
2020-01-10 00:00:00 3.6 2 Noroeste 6 Norte 0 -- -- 97
2020-01-09 23:00:00 3.4 5 Norte 6 Norte 0 -- -- 95
2020-01-09 22:00:00 4.7 2 Noroeste 8 Sudeste 0 -- -- 94
2020-01-09 21:00:00 6.9 4 Sudeste 12 Sudeste 0 -- -- 93
2020-01-09 20:00:00 7.5 7 Sudeste 11 Sudeste 0 -- -- 90
2020-01-09 19:00:00 8.8 0 Calma 13 Sur 0 -- -- 85
2020-01-09 18:00:00 10.2 11 Sur 21 Sur 0 -- -- 81
2020-01-09 17:00:00 11.7 14 Sur 18 Sur 0 -- -- 76
2020-01-09 16:00:00 12.7 12 Sur 18 Sur 0 -- -- 71
2020-01-09 15:00:00 12.6 13 Sur 19 Sur 0 -- -- 68
2020-01-09 14:00:00 11.4 11 Sur 16 Sur 0 -- -- 69
2020-01-09 13:00:00 9.7 6 Sur 8 Sudeste 0 -- -- 73
2020-01-09 12:00:00 6.9 4 Sur 7 Sur 0 -- -- 80
2020-01-09 11:00:00 3.2 2 Norte 5 Sudoeste 0 -- -- 95
2020-01-09 10:00:00 0.1 4 Norte 5 Norte 0 -- -- 100
2020-01-09 09:00:00 -1.6 2 Norte 6 Norte 0 -- -- 100
2020-01-09 08:00:00 -1.5 0 Calma 8 Norte 0 -- -- 100
2020-01-09 07:00:00 -1.3 4 Noroeste 6 Norte 0 -- -- 99
2020-01-09 06:00:00 -1.3 4 Norte 7 Norte 0 -- -- 99
2020-01-09 05:00:00 -0.5 4 Norte 6 Norte 0 -- -- 99
2020-01-09 04:00:00 0.2 3 Norte 6 Norte 0 -- -- 99
2020-01-09 03:00:00 -0.5 2 Noroeste 5 Norte 0 -- -- 97
2020-01-09 02:00:00 0.9 0 Calma 5 Norte 0 -- -- 98
2020-01-09 01:00:00 1.1 6 Noroeste 8 Norte 0 -- -- 96
2020-01-09 00:00:00 2.2 0 Calma 7 Noroeste 0 -- -- 96
2020-01-08 23:00:00 3.2 4 Noroeste 8 Norte 0 -- -- 96
2020-01-08 22:00:00 3 5 Norte 8 Noroeste 0 -- -- 94
2020-01-08 21:00:00 4.2 5 Norte 8 Noroeste 0 -- -- 91
2020-01-08 20:00:00 6.4 6 Norte 8 Norte 0 -- -- 87
2020-01-08 19:00:00 9 0 Calma 6 Sudoeste 0 -- -- 77
2020-01-08 18:00:00 11.4 3 Sur 12 Sur 0 -- -- 69
2020-01-08 17:00:00 12.7 9 Sur 13 Sur 0 -- -- 63
2020-01-08 16:00:00 14.4 8 Sur 12 Sur 0 -- -- 60
2020-01-08 15:00:00 14.8 6 Sur 9 Sudeste 0 -- -- 55
2020-01-08 14:00:00 12.7 5 Sudeste 8 Sudeste 0 -- -- 59
2020-01-08 13:00:00 10.3 5 Sur 9 Sudoeste 0 -- -- 62
2020-01-08 12:00:00 7.4 5 Sur 8 Sur 0 -- -- 70
2020-01-08 11:00:00 3.8 3 Sudeste 6 Este 0 -- -- 85
2020-01-08 10:00:00 0.2 3 Norte 5 Noroeste 0 -- -- 98
2020-01-08 09:00:00 -2 2 Norte 8 Norte 0 -- -- 99
2020-01-08 08:00:00 -2.2 4 Norte 7 Norte 0 -- -- 98
2020-01-08 07:00:00 -1.8 4 Norte 9 Norte 0 -- -- 98
2020-01-08 06:00:00 -1.5 2 Sudoeste 7 Norte 0 -- -- 98
2020-01-08 05:00:00 -1.8 0 Calma 6 Noroeste 0 -- -- 98
2020-01-08 04:00:00 -1.4 3 Norte 9 Noroeste 0 -- -- 98
2020-01-08 03:00:00 -1.1 5 Norte 9 Norte 0 -- -- 99
2020-01-08 02:00:00 -1.1 4 Norte 8 Noroeste 0 -- -- 96
2020-01-08 01:00:00 -1 4 Norte 8 Noroeste 0 -- -- 95
2020-01-08 00:00:00 0.6 5 Norte 8 Noroeste 0 -- -- 97
2020-01-07 23:00:00 1.5 7 Norte 10 Norte 0 -- -- 95
2020-01-07 22:00:00 1.4 3 Sudoeste 6 Noroeste 0 -- -- 95
2020-01-07 21:00:00 1.8 0 Calma 5 Norte 0 -- -- 90
2020-01-07 20:00:00 3.5 0 Calma 6 Norte 0 -- -- 86
2020-01-07 19:00:00 5.6 2 Sur 5 Noroeste 0 -- -- 81
2020-01-07 18:00:00 8.1 3 Sur 8 Sudoeste 0 -- -- 73
2020-01-07 17:00:00 10.6 3 Sudoeste 9 Sur 0 -- -- 63
2020-01-07 16:00:00 11.6 7 Sur 12 Sur 0 -- -- 59
2020-01-07 15:00:00 11.4 7 Sur 12 Sur 0 -- -- 61
2020-01-07 14:00:00 10.1 7 Sur 10 Sur 0 -- -- 65
2020-01-07 13:00:00 7.9 4 Sudeste 6 Sur 0 -- -- 72
2020-01-07 12:00:00 5.1 2 Este 6 Sudeste 0 -- -- 81
2020-01-07 11:00:00 1.9 3 Sudeste 5 Sudeste 0 -- -- 91
2020-01-07 10:00:00 -0.1 3 Este 5 Este 0 -- -- 96
2020-01-07 09:00:00 -3 2 Noroeste 7 Norte 0 -- -- 99
2020-01-07 08:00:00 -3.5 3 Norte 6 Norte 0 -- -- 97
2020-01-07 07:00:00 -2.8 4 Noroeste 8 Norte 0 -- -- 98
2020-01-07 06:00:00 -2.7 2 Sudoeste 7 Norte 0 -- -- 98
2020-01-07 05:00:00 -2.5 0 Calma 9 Noroeste 0 -- -- 97
2020-01-07 04:00:00 -2 3 Sudoeste 14 Noroeste 0 -- -- 98
2020-01-07 03:00:00 -1.7 5 Norte 9 Norte 0 -- -- 99
2020-01-07 02:00:00 -1.1 3 Noroeste 9 Norte 0 -- -- 98
2020-01-07 01:00:00 -1.4 0 Calma 5 Norte 0 -- -- 97
2020-01-07 00:00:00 -0.3 2 Nordeste 8 Noroeste 0 -- -- 97
2020-01-06 23:00:00 0.2 2 Norte 6 Norte 0 -- -- 94
2020-01-06 22:00:00 0.5 3 Norte 6 Norte 0 -- -- 92
2020-01-06 21:00:00 2.1 4 Noroeste 7 Noroeste 0 -- -- 94
2020-01-06 20:00:00 3.4 4 Norte 8 Noroeste 0 -- -- 90
2020-01-06 19:00:00 5.2 6 Noroeste 8 Norte 0 -- -- 84
2020-01-06 18:00:00 8.9 0 Calma 3 Sur 0 -- -- 67
2020-01-06 17:00:00 12.3 0 Calma 9 Sudoeste 0 -- -- 52
2020-01-06 16:00:00 12.8 6 Sur 10 Sur 0 -- -- 54
2020-01-06 15:00:00 12.6 6 Sur 10 Sur 0 -- -- 55
2020-01-06 14:00:00 10.4 3 Sudeste 7 Este 0 -- -- 61
2020-01-06 13:00:00 8.2 3 Este 8 Sudeste 0 -- -- 69
2020-01-06 12:00:00 5.8 4 Sur 7 Sur 0 -- -- 75
2020-01-06 11:00:00 2.7 3 Nordeste 4 Nordeste 0 -- -- 90
2020-01-06 10:00:00 0.4 0 Calma 4 Este 0 -- -- 97